Time;durP1;ratioP1;P1;durP2;ratioP2;P2;SDS_P1;SDS_P2;PMS_P1;PMS_P2;Temp;Humidity;BMP_temperature;BMP_pressure;BME280_temperature;BME280_humidity;BME280_pressure;Samples;Min_cycle;Max_cycle;Signal;HPM_P1;HPM_P2
2023/05/29 00:02:01;;;;;;;;;;;;;;;;;;4946252;28;99775;-82
2023/05/29 00:04:28;;;;;;;6.53;1.80;;;;;;;;;;4945774;28;128974;-83
2023/05/29 00:06:55;;;;;;;7.10;2.03;;;;;;;;;;4944625;28;98580;-82
2023/05/29 00:09:22;;;;;;;4.85;1.58;;;;;;;;;;4943724;28;99089;-82
2023/05/29 00:11:51;;;;;;;6.20;1.67;;;;;;;;;;4940014;28;99102;-82
2023/05/29 00:14:19;;;;;;;5.53;1.45;;;;;;;;;;4944874;28;98519;-82
2023/05/29 00:16:46;;;;;;;6.25;1.50;;;;;;;;;;4944668;28;98697;-82
2023/05/29 00:19:13;;;;;;;6.88;1.60;;;;;;;;;;4948621;28;99208;-82
2023/05/29 00:21:40;;;;;;;6.25;1.63;;;;;;;;;;4945414;28;98487;-82
2023/05/29 00:24:07;;;;;;;4.60;1.48;;;;;;;;;;4943005;28;102471;-82
2023/05/29 00:26:34;;;;;;;6.50;1.77;;;;;;;;;;4944707;28;99506;-82
2023/05/29 00:29:01;;;;;;;4.68;1.40;;;;;;;;;;4943628;28;105353;-82
2023/05/29 00:31:28;;;;;;;5.20;1.63;;;;;;;;;;4944944;28;100101;-82
2023/05/29 00:33:54;;;;;;;4.75;1.50;;;;;;;;;;4943301;28;98593;-82
2023/05/29 00:36:21;;;;;;;5.80;1.55;;;;;;;;;;4944100;28;99955;-82
2023/05/29 00:38:48;;;;;;;5.30;1.48;;;;;;;;;;4948887;28;99627;-82
2023/05/29 00:41:15;;;;;;;4.80;1.20;;;;;;;;;;4947935;28;99464;-82
2023/05/29 00:43:42;;;;;;;;;;;;;;;;;;4949246;28;98182;-81
2023/05/29 00:46:09;;;;;;;5.88;1.50;;;;;;;;;;4949906;28;101541;-81
2023/05/29 00:48:36;;;;;;;5.43;1.33;;;;;;;;;;4946482;28;102025;-81
2023/05/29 00:51:03;;;;;;;5.75;1.50;;;;;;;;;;4949204;28;100352;-80
2023/05/29 00:53:30;;;;;;;4.78;1.40;;;;;;;;;;4947846;28;98584;-81
2023/05/29 00:55:57;;;;;;;5.68;1.60;;;;;;;;;;4950055;28;98693;-80
2023/05/29 00:58:24;;;;;;;6.53;1.42;;;;;;;;;;4949613;28;99548;-82
2023/05/29 01:00:52;;;;;;;4.32;1.30;;;;;;;;;;4955688;28;99066;-82
2023/05/29 01:03:19;;;;;;;5.88;1.33;;;;;;;;;;4952426;28;102161;-82
2023/05/29 01:05:46;;;;;;;5.03;1.45;;;;;;;;;;4952682;28;98514;-82
2023/05/29 01:08:13;;;;;;;6.90;1.48;;;;;;;;;;4946560;28;101195;-81
2023/05/29 01:10:42;;;;;;;5.15;1.35;;;;;;;;;;4951746;28;101398;-82
2023/05/29 01:13:19;;;;;;;5.43;1.40;;;;;;;;;;4952917;28;99422;-81
2023/05/29 01:16:05;;;;;;;5.10;1.45;;;;;;;;;;4954702;28;100021;-81
2023/05/29 01:18:35;;;;;;;4.85;1.38;;;;;;;;;;4958095;28;99155;-81
2023/05/29 01:21:02;;;;;;;6.32;1.50;;;;;;;;;;4954647;28;98546;-82
2023/05/29 01:23:50;;;;;;;4.68;1.45;;;;;;;;;;4958188;28;98932;-81
2023/05/29 01:26:32;;;;;;;4.28;1.60;;;;;;;;;;4948303;28;98511;-82
2023/05/29 01:29:00;;;;;;;4.72;1.50;;;;;;;;;;4933327;28;99996;-82
2023/05/29 01:31:28;;;;;;;4.00;1.35;;;;;;;;;;4946688;28;100240;-82
2023/05/29 01:33:57;;;;;;;3.92;1.20;;;;;;;;;;4948275;28;97891;-82
2023/05/29 01:36:24;;;;;;;5.40;1.60;;;;;;;;;;4941188;28;98851;-82
2023/05/29 01:38:51;;;;;;;4.13;1.38;;;;;;;;;;4947724;28;100151;-82
2023/05/29 01:41:18;;;;;;;4.45;1.35;;;;;;;;;;4948214;28;99270;-83
2023/05/29 01:43:46;;;;;;;4.82;1.27;;;;;;;;;;4948690;28;100915;-82
2023/05/29 01:46:13;;;;;;;4.75;1.52;;;;;;;;;;4950965;28;100488;-82
2023/05/29 01:48:41;;;;;;;4.28;1.25;;;;;;;;;;4945939;28;100871;-82
2023/05/29 01:51:08;;;;;;;4.65;1.30;;;;;;;;;;4948876;28;99234;-82
2023/05/29 01:53:34;;;;;;;3.67;1.33;;;;;;;;;;4947216;28;98508;-82
2023/05/29 01:56:01;;;;;;;5.80;1.42;;;;;;;;;;4946486;28;101423;-82
2023/05/29 01:58:29;;;;;;;5.85;1.20;;;;;;;;;;4945692;28;100900;-83
2023/05/29 02:00:56;;;;;;;5.25;1.40;;;;;;;;;;4945370;28;106331;-81
2023/05/29 02:03:23;;;;;;;4.40;1.30;;;;;;;;;;4946864;28;100039;-82
2023/05/29 02:05:50;;;;;;;5.22;1.42;;;;;;;;;;4946418;28;100885;-82
2023/05/29 02:08:16;;;;;;;4.22;1.27;;;;;;;;;;4949567;28;98509;-82
2023/05/29 02:10:43;;;;;;;4.55;1.20;;;;;;;;;;4946090;28;100106;-81
2023/05/29 02:13:09;;;;;;;4.25;1.40;;;;;;;;;;4945277;28;99035;-82
2023/05/29 02:15:36;;;;;;;5.00;1.50;;;;;;;;;;4947832;28;98750;-82
2023/05/29 02:18:03;;;;;;;4.85;1.40;;;;;;;;;;4936619;28;101845;-82
2023/05/29 02:20:29;;;;;;;4.85;1.30;;;;;;;;;;4947369;28;98595;-83
2023/05/29 02:22:57;;;;;;;4.65;1.33;;;;;;;;;;4946014;28;101910;-80
2023/05/29 02:25:24;;;;;;;6.55;1.30;;;;;;;;;;4946938;28;99673;-81
2023/05/29 02:27:51;;;;;;;;;;;;;;;;;;4944440;28;99357;-81
2023/05/29 02:30:17;;;;;;;5.15;1.30;;;;;;;;;;4950100;28;124213;-81
2023/05/29 02:32:44;;;;;;;4.07;1.30;;;;;;;;;;4945743;28;98708;-81
2023/05/29 02:35:13;;;;;;;4.68;1.20;;;;;;;;;;4934249;28;98723;-81
2023/05/29 02:37:39;;;;;;;4.22;1.25;;;;;;;;;;4946885;28;99005;-82
2023/05/29 02:40:09;;;;;;;3.97;1.15;;;;;;;;;;4947858;28;98609;-81
2023/05/29 02:42:37;;;;;;;4.55;1.38;;;;;;;;;;4944639;28;101792;-81
2023/05/29 02:45:04;;;;;;;4.13;1.30;;;;;;;;;;4946941;28;99296;-81
2023/05/29 02:47:31;;;;;;;4.22;1.20;;;;;;;;;;4946152;28;97986;-82
2023/05/29 02:49:58;;;;;;;5.25;1.30;;;;;;;;;;4949910;28;99377;-81
2023/05/29 02:52:24;;;;;;;4.60;1.27;;;;;;;;;;4928922;28;98599;-82
2023/05/29 02:54:51;;;;;;;5.25;1.30;;;;;;;;;;4945876;28;99290;-81
2023/05/29 02:57:17;;;;;;;5.93;1.30;;;;;;;;;;4944873;28;101818;-82
2023/05/29 02:59:45;;;;;;;5.07;1.30;;;;;;;;;;4935998;28;99025;-81
2023/05/29 03:02:12;;;;;;;2.88;1.00;;;;;;;;;;4959823;28;102109;-82
2023/05/29 03:04:38;;;;;;;3.92;1.20;;;;;;;;;;4943744;28;100120;-81
2023/05/29 03:07:06;;;;;;;3.55;0.98;;;;;;;;;;4944130;28;99124;-82
2023/05/29 03:09:32;;;;;;;5.32;1.20;;;;;;;;;;4946656;28;98854;-80
2023/05/29 03:12:01;;;;;;;5.35;1.50;;;;;;;;;;4948310;28;101723;-81
2023/05/29 03:14:27;;;;;;;4.50;1.20;;;;;;;;;;4945123;28;101255;-81
2023/05/29 03:16:54;;;;;;;3.50;1.10;;;;;;;;;;4944468;28;101813;-82
2023/05/29 03:19:21;;;;;;;4.57;1.08;;;;;;;;;;4949777;28;99213;-82
2023/05/29 03:21:47;;;;;;;4.07;1.30;;;;;;;;;;4946717;28;101918;-80
2023/05/29 03:24:16;;;;;;;4.95;1.20;;;;;;;;;;4943423;28;100314;-82
2023/05/29 03:26:42;;;;;;;6.57;1.30;;;;;;;;;;4943581;28;99819;-80
2023/05/29 03:29:09;;;;;;;4.50;1.33;;;;;;;;;;4943901;28;101127;-81
2023/05/29 03:31:35;;;;;;;3.45;1.13;;;;;;;;;;4944152;28;101488;-82
2023/05/29 03:34:02;;;;;;;4.85;1.27;;;;;;;;;;4947883;28;99133;-82
2023/05/29 03:36:38;;;;;;;3.63;1.08;;;;;;;;;;4933501;28;98925;-81
2023/05/29 03:39:06;;;;;;;4.63;1.13;;;;;;;;;;4945780;28;98512;-81
2023/05/29 03:41:32;;;;;;;6.30;1.30;;;;;;;;;;4941576;28;101201;-82
2023/05/29 03:43:59;;;;;;;3.97;1.13;;;;;;;;;;4943053;28;102339;-81
2023/05/29 03:46:27;;;;;;;;;;;;;;;;;;4944318;28;98596;-81
2023/05/29 03:48:53;;;;;;;5.38;1.40;;;;;;;;;;4944484;28;100384;-80
2023/05/29 03:51:20;;;;;;;4.05;1.00;;;;;;;;;;4942697;28;101903;-81
2023/05/29 03:53:50;;;;;;;5.50;1.40;;;;;;;;;;4943386;28;98639;-81
2023/05/29 03:56:17;;;;;;;;;;;;;;;;;;4946672;28;101680;-81
2023/05/29 03:58:43;;;;;;;3.97;1.20;;;;;;;;;;4943631;28;98679;-80
2023/05/29 04:01:11;;;;;;;4.55;1.25;;;;;;;;;;4945447;28;98752;-81
2023/05/29 04:03:38;;;;;;;4.95;1.25;;;;;;;;;;4943150;28;99139;-81
2023/05/29 04:06:05;;;;;;;4.55;1.10;;;;;;;;;;4943161;28;98740;-82
2023/05/29 04:08:31;;;;;;;5.03;1.15;;;;;;;;;;4942895;28;100804;-81
2023/05/29 04:10:58;;;;;;;5.70;1.30;;;;;;;;;;4942165;28;101955;-81
2023/05/29 04:13:27;;;;;;;5.25;1.40;;;;;;;;;;4939373;28;98838;-82
2023/05/29 04:15:54;;;;;;;4.13;1.10;;;;;;;;;;4959146;28;98639;-82
2023/05/29 04:18:21;;;;;;;5.30;1.20;;;;;;;;;;4954603;28;101378;-82
2023/05/29 04:20:47;;;;;;;6.13;1.27;;;;;;;;;;4946962;28;101758;-81
2023/05/29 04:23:15;;;;;;;4.35;1.00;;;;;;;;;;4956594;28;101948;-81
2023/05/29 04:25:43;;;;;;;3.65;1.10;;;;;;;;;;4951211;28;98067;-81
2023/05/29 04:28:11;;;;;;;6.68;1.25;;;;;;;;;;4966199;28;100703;-81
2023/05/29 04:30:39;;;;;;;5.30;1.05;;;;;;;;;;4965188;28;100418;-81
2023/05/29 04:33:06;;;;;;;5.05;1.10;;;;;;;;;;4965412;28;99386;-81
2023/05/29 04:35:34;;;;;;;5.07;1.10;;;;;;;;;;4953578;28;101054;-82
2023/05/29 04:38:05;;;;;;;4.10;1.13;;;;;;;;;;4940611;28;101711;-81
2023/05/29 04:40:33;;;;;;;4.50;1.00;;;;;;;;;;4951618;28;98448;-83
2023/05/29 04:43:01;;;;;;;4.65;1.10;;;;;;;;;;4944596;28;106148;-81
2023/05/29 04:45:38;;;;;;;3.63;1.00;;;;;;;;;;4931220;28;98635;-82
2023/05/29 04:48:05;;;;;;;4.82;1.17;;;;;;;;;;4945952;28;100580;-82
2023/05/29 04:50:33;;;;;;;4.63;1.20;;;;;;;;;;4946089;28;100332;-82
2023/05/29 04:52:59;;;;;;;5.15;1.10;;;;;;;;;;4944961;28;98671;-82
2023/05/29 04:55:27;;;;;;;6.57;1.30;;;;;;;;;;4945899;28;101271;-81
2023/05/29 04:57:54;;;;;;;5.38;1.30;;;;;;;;;;4945479;28;102170;-83
2023/05/29 05:00:22;;;;;;;4.70;1.30;;;;;;;;;;4956965;28;99418;-81
2023/05/29 05:02:49;;;;;;;5.13;1.40;;;;;;;;;;4948184;28;101635;-81
2023/05/29 05:05:16;;;;;;;;;;;;;;;;;;4952956;28;99214;-81
2023/05/29 05:07:43;;;;;;;4.82;1.20;;;;;;;;;;4969179;28;112952;-80
2023/05/29 05:10:10;;;;;;;5.97;1.35;;;;;;;;;;4965002;28;101728;-83
2023/05/29 05:12:37;;;;;;;3.60;1.15;;;;;;;;;;4960956;28;98556;-81
2023/05/29 05:15:04;;;;;;;3.45;0.90;;;;;;;;;;4965560;28;101414;-81
2023/05/29 05:17:33;;;;;;;4.50;1.10;;;;;;;;;;4964875;28;101325;-82
2023/05/29 05:19:59;;;;;;;4.20;1.20;;;;;;;;;;4964360;28;98619;-82
2023/05/29 05:22:26;;;;;;;4.25;1.00;;;;;;;;;;4968301;28;101529;-82
2023/05/29 05:24:54;;;;;;;5.07;1.20;;;;;;;;;;4964405;28;98642;-82
2023/05/29 05:27:23;;;;;;;6.15;1.20;;;;;;;;;;4966347;28;101564;-82
2023/05/29 05:29:49;;;;;;;4.85;0.98;;;;;;;;;;4966758;28;102013;-82
2023/05/29 05:32:16;;;;;;;3.95;1.02;;;;;;;;;;4968967;28;99049;-83
2023/05/29 05:34:43;;;;;;;3.65;0.90;;;;;;;;;;4957944;28;101251;-80
2023/05/29 05:37:11;;;;;;;4.65;1.10;;;;;;;;;;4966244;28;101498;-80
2023/05/29 05:39:40;;;;;;;5.20;1.42;;;;;;;;;;4965859;28;97830;-81
2023/05/29 05:42:06;;;;;;;4.72;1.10;;;;;;;;;;4966503;28;98741;-80
2023/05/29 05:44:43;;;;;;;3.92;1.05;;;;;;;;;;4967138;28;101779;-83
2023/05/29 05:47:12;;;;;;;4.18;1.00;;;;;;;;;;4954677;28;101300;-80
2023/05/29 05:49:39;;;;;;;4.95;1.10;;;;;;;;;;4944596;28;101479;-81
2023/05/29 05:52:06;;;;;;;3.45;1.15;;;;;;;;;;4945195;28;98579;-81
2023/05/29 05:54:33;;;;;;;4.68;1.27;;;;;;;;;;4944820;28;101391;-81
2023/05/29 05:57:00;;;;;;;4.80;1.00;;;;;;;;;;4954420;28;101248;-82
2023/05/29 05:59:28;;;;;;;3.80;1.20;;;;;;;;;;4964485;28;98579;-81
2023/05/29 06:01:54;;;;;;;5.18;1.23;;;;;;;;;;4964030;28;101330;-80
2023/05/29 06:04:22;;;;;;;;;;;;;;;;;;4965500;28;100766;-81
2023/05/29 06:06:48;;;;;;;6.32;1.30;;;;;;;;;;4967656;28;116544;-81
2023/05/29 06:09:15;;;;;;;4.75;1.20;;;;;;;;;;4963803;28;102213;-82
2023/05/29 06:11:43;;;;;;;4.78;1.02;;;;;;;;;;4958645;28;99593;-82
2023/05/29 06:14:10;;;;;;;4.07;1.02;;;;;;;;;;4954077;28;100856;-82
2023/05/29 06:16:36;;;;;;;3.92;1.10;;;;;;;;;;4964718;28;99004;-81
2023/05/29 06:19:04;;;;;;;5.20;1.30;;;;;;;;;;4964077;28;98732;-82
2023/05/29 06:21:37;;;;;;;4.25;1.08;;;;;;;;;;4964634;28;101457;-82
2023/05/29 06:24:04;;;;;;;4.03;1.00;;;;;;;;;;4964071;28;101869;-83
2023/05/29 06:26:30;;;;;;;3.13;1.08;;;;;;;;;;4964601;28;98755;-82
2023/05/29 06:28:57;;;;;;;3.50;1.05;;;;;;;;;;4968110;28;102208;-82
2023/05/29 06:31:25;;;;;;;4.05;1.20;;;;;;;;;;4965892;28;98610;-82
2023/05/29 06:33:52;;;;;;;4.88;1.00;;;;;;;;;;4960617;28;101422;-83
2023/05/29 06:36:18;;;;;;;5.18;1.20;;;;;;;;;;4947087;28;102759;-82
2023/05/29 06:38:51;;;;;;;3.80;0.90;;;;;;;;;;4943815;28;98668;-82
2023/05/29 06:41:17;;;;;;;4.85;1.30;;;;;;;;;;4946143;28;101823;-82
2023/05/29 06:43:44;;;;;;;4.53;1.00;;;;;;;;;;4953575;28;101483;-82
2023/05/29 06:46:12;;;;;;;5.18;1.20;;;;;;;;;;4962160;28;98590;-82
2023/05/29 06:48:38;;;;;;;4.50;1.20;;;;;;;;;;4948748;28;98793;-81
2023/05/29 06:51:09;;;;;;;4.65;1.00;;;;;;;;;;4946765;28;98520;-81
2023/05/29 06:54:05;;;;;;;4.75;1.00;;;;;;;;;;4949724;28;98254;-81
2023/05/29 06:56:38;;;;;;;3.70;1.00;;;;;;;;;;5082653;27;86475;-79
2023/05/29 06:59:05;;;;;;;4.40;1.20;;;;;;;;;;5059042;27;86383;-79
2023/05/29 07:01:32;;;;;;;4.90;1.05;;;;;;;;;;5037200;27;86807;-79
2023/05/29 07:04:01;;;;;;;3.28;1.08;;;;;;;;;;5057361;27;88613;-80
2023/05/29 07:06:29;;;;;;;4.97;1.10;;;;;;;;;;5038976;27;89171;-79
2023/05/29 07:08:55;;;;;;;4.45;1.15;;;;;;;;;;5042294;27;89380;-79
2023/05/29 07:11:22;;;;;;;3.90;1.05;;;;;;;;;;5059435;27;88513;-79
2023/05/29 07:13:49;;;;;;;5.57;1.30;;;;;;;;;;5041051;27;89613;-79
2023/05/29 07:16:18;;;;;;;5.60;1.30;;;;;;;;;;5083225;27;86495;-80
2023/05/29 07:18:58;;;;;;;4.75;1.20;;;;;;;;;;5098911;27;86867;-80
2023/05/29 07:21:28;;;;;;;4.80;1.20;;;;;;;;;;5080581;27;88817;-79
2023/05/29 07:23:54;;;;;;;3.72;1.00;;;;;;;;;;5080985;27;89198;-80
2023/05/29 07:26:22;;;;;;;4.40;1.02;;;;;;;;;;5085994;27;89461;-80
2023/05/29 07:28:49;;;;;;;5.88;1.23;;;;;;;;;;5086710;27;89421;-80
2023/05/29 07:31:16;;;;;;;4.07;1.20;;;;;;;;;;5080196;27;89110;-80
2023/05/29 07:33:43;;;;;;;5.75;1.30;;;;;;;;;;5088575;27;89074;-80
2023/05/29 07:36:09;;;;;;;4.65;1.20;;;;;;;;;;5085953;27;89143;-80
2023/05/29 07:38:36;;;;;;;6.90;1.30;;;;;;;;;;5103815;27;89066;-80
2023/05/29 07:41:02;;;;;;;7.45;1.70;;;;;;;;;;5095321;27;88629;-80
2023/05/29 07:43:30;;;;;;;7.90;1.60;;;;;;;;;;5086540;27;89424;-80
2023/05/29 07:46:00;;;;;;;4.93;1.27;;;;;;;;;;5080131;27;89141;-81
2023/05/29 07:48:26;;;;;;;7.47;1.60;;;;;;;;;;5080607;27;88951;-80
2023/05/29 07:50:54;;;;;;;6.40;1.42;;;;;;;;;;5092540;27;88960;-77
2023/05/29 07:53:23;;;;;;;5.93;1.30;;;;;;;;;;5100667;27;89271;-79
2023/05/29 07:55:50;;;;;;;6.72;1.42;;;;;;;;;;5073610;27;86377;-78
2023/05/29 07:58:17;;;;;;;9.13;1.65;;;;;;;;;;5071676;27;89335;-78
2023/05/29 08:00:44;;;;;;;6.28;1.52;;;;;;;;;;5092239;27;89074;-78
2023/05/29 08:03:12;;;;;;;5.82;1.55;;;;;;;;;;5084182;27;86633;-79
2023/05/29 08:05:58;;;;;;;6.93;1.50;;;;;;;;;;5086083;27;87107;-79
2023/05/29 08:08:26;;;;;;;4.53;1.25;;;;;;;;;;5069960;27;88860;-79
2023/05/29 08:10:53;;;;;;;7.30;1.50;;;;;;;;;;5085025;27;89273;-79
2023/05/29 08:13:20;;;;;;;8.82;1.60;;;;;;;;;;5082585;27;86695;-79
2023/05/29 08:15:46;;;;;;;5.70;1.25;;;;;;;;;;5086054;27;89155;-79
2023/05/29 08:18:13;;;;;;;6.20;1.67;;;;;;;;;;5088120;27;86751;-79
2023/05/29 08:20:40;;;;;;;5.47;1.30;;;;;;;;;;5084745;27;89467;-80
2023/05/29 08:23:06;;;;;;;5.95;1.23;;;;;;;;;;5089878;27;86656;-79
2023/05/29 08:25:33;;;;;;;4.53;1.33;;;;;;;;;;5085950;27;89466;-79
2023/05/29 08:28:00;;;;;;;6.10;1.48;;;;;;;;;;5067222;27;86968;-79
2023/05/29 08:30:26;;;;;;;6.13;1.30;;;;;;;;;;5067449;27;87361;-78
2023/05/29 08:32:53;;;;;;;4.38;1.30;;;;;;;;;;5066085;27;86918;-79
2023/05/29 08:35:19;;;;;;;5.15;1.30;;;;;;;;;;5085567;27;86700;-80
2023/05/29 08:37:46;;;;;;;5.85;1.60;;;;;;;;;;5074176;27;87102;-79
2023/05/29 08:40:12;;;;;;;4.93;1.20;;;;;;;;;;5070863;27;86928;-79
2023/05/29 08:42:46;;;;;;;5.05;1.30;;;;;;;;;;5065995;27;86689;-79
2023/05/29 08:45:14;;;;;;;6.45;1.33;;;;;;;;;;5069706;27;87027;-79
2023/05/29 08:47:42;;;;;;;5.90;1.15;;;;;;;;;;5084249;27;86522;-79
2023/05/29 08:50:13;;;;;;;5.25;1.15;;;;;;;;;;5084390;27;87023;-79
2023/05/29 08:52:40;;;;;;;5.30;1.20;;;;;;;;;;5065925;27;86906;-80
2023/05/29 08:55:07;;;;;;;3.92;1.30;;;;;;;;;;5065875;27;86475;-79
2023/05/29 08:57:34;;;;;;;5.25;1.10;;;;;;;;;;5068461;27;89550;-79
2023/05/29 09:00:01;;;;;;;6.32;1.27;;;;;;;;;;5066728;27;86893;-79
2023/05/29 09:02:27;;;;;;;5.75;1.40;;;;;;;;;;5072556;27;86401;-79
2023/05/29 09:04:56;;;;;;;5.75;1.45;;;;;;;;;;5071921;27;86697;-79
2023/05/29 09:07:22;;;;;;;5.20;1.23;;;;;;;;;;5081032;27;86330;-79
2023/05/29 09:09:49;;;;;;;5.55;1.20;;;;;;;;;;5066613;27;86629;-79
2023/05/29 09:12:16;;;;;;;4.72;1.17;;;;;;;;;;5079490;27;86326;-79
2023/05/29 09:14:44;;;;;;;4.47;1.10;;;;;;;;;;5071158;27;88116;-80
2023/05/29 09:17:12;;;;;;;5.00;1.23;;;;;;;;;;5065139;27;86812;-79
2023/05/29 09:19:40;;;;;;;4.43;1.40;;;;;;;;;;5068572;27;86237;-79
2023/05/29 09:22:08;;;;;;;4.32;1.20;;;;;;;;;;5079274;27;88230;-80
2023/05/29 09:24:36;;;;;;;3.97;1.20;;;;;;;;;;5085469;27;86863;-80
2023/05/29 09:27:04;;;;;;;3.58;1.15;;;;;;;;;;5089269;27;90347;-80
2023/05/29 09:29:32;;;;;;;4.72;1.40;;;;;;;;;;5086254;27;86745;-80
2023/05/29 09:31:58;;;;;;;4.22;1.20;;;;;;;;;;5085619;27;86863;-80
2023/05/29 09:34:31;;;;;;;5.82;1.30;;;;;;;;;;5069420;27;89620;-79
2023/05/29 09:37:07;;;;;;;5.82;1.40;;;;;;;;;;5069526;27;86421;-79
2023/05/29 09:39:43;;;;;;;3.65;1.35;;;;;;;;;;5084445;27;89447;-79
2023/05/29 09:42:11;;;;;;;6.07;1.40;;;;;;;;;;5080093;27;87020;-79
2023/05/29 09:44:37;;;;;;;;;;;;;;;;;;5082289;27;87192;-80
2023/05/29 09:47:04;;;;;;;4.07;1.10;;;;;;;;;;5066542;27;88251;-79
2023/05/29 09:49:31;;;;;;;6.00;1.50;;;;;;;;;;5068775;27;86539;-79
2023/05/29 09:52:01;;;;;;;5.43;1.20;;;;;;;;;;5068136;27;88664;-80
2023/05/29 09:54:30;;;;;;;4.50;1.27;;;;;;;;;;5084764;27;86921;-80
2023/05/29 09:56:57;;;;;;;4.03;1.10;;;;;;;;;;5077018;27;87831;-79
2023/05/29 09:59:24;;;;;;;3.17;1.00;;;;;;;;;;5083761;27;87180;-80
2023/05/29 10:02:03;;;;;;;5.47;1.08;;;;;;;;;;5071850;27;89253;-80
2023/05/29 10:04:32;;;;;;;4.25;1.20;;;;;;;;;;5077077;27;86555;-80
2023/05/29 10:07:08;;;;;;;4.03;1.27;;;;;;;;;;5079672;27;86434;-80
2023/05/29 10:09:37;;;;;;;5.95;1.27;;;;;;;;;;5078169;27;86778;-79
2023/05/29 10:12:07;;;;;;;3.15;1.25;;;;;;;;;;5082932;27;86505;-80
2023/05/29 10:14:34;;;;;;;3.42;0.90;;;;;;;;;;5073526;27;87278;-80
2023/05/29 10:17:01;;;;;;;;;;;;;;;;;;5085087;27;92016;-80
2023/05/29 10:19:29;;;;;;;4.72;1.25;;;;;;;;;;5066554;27;98385;-80
2023/05/29 10:21:57;;;;;;;3.97;1.20;;;;;;;;;;5064432;27;86536;-80
2023/05/29 10:24:23;;;;;;;5.13;1.20;;;;;;;;;;5065277;27;87095;-80
2023/05/29 10:26:51;;;;;;;4.60;1.25;;;;;;;;;;5064276;27;86622;-80
2023/05/29 10:29:33;;;;;;;3.72;1.20;;;;;;;;;;5066311;27;86620;-80
2023/05/29 10:32:06;;;;;;;4.63;1.20;;;;;;;;;;5085555;27;86552;-79
2023/05/29 10:34:37;;;;;;;4.70;1.15;;;;;;;;;;5076243;27;86977;-79
2023/05/29 10:37:09;;;;;;;4.78;1.15;;;;;;;;;;5084052;27;91406;-79
2023/05/29 10:39:36;;;;;;;4.53;1.10;;;;;;;;;;5084009;27;89674;-79
2023/05/29 10:42:22;;;;;;;4.45;1.20;;;;;;;;;;5075751;27;86556;-79
2023/05/29 10:44:49;;;;;;;3.72;1.08;;;;;;;;;;5064556;27;86817;-79
2023/05/29 10:47:22;;;;;;;5.10;1.23;;;;;;;;;;5064309;27;88076;-79
2023/05/29 10:49:50;;;;;;;4.60;1.10;;;;;;;;;;5083876;27;86882;-80
2023/05/29 10:52:18;;;;;;;6.18;1.35;;;;;;;;;;5085456;27;86824;-80
2023/05/29 10:54:51;;;;;;;5.03;1.40;;;;;;;;;;5067643;27;89733;-80
2023/05/29 10:57:17;;;;;;;5.80;1.30;;;;;;;;;;5079918;27;88740;-80
2023/05/29 10:59:44;;;;;;;4.65;1.35;;;;;;;;;;5070892;27;86948;-80
2023/05/29 11:02:11;;;;;;;3.45;1.10;;;;;;;;;;5084261;27;86534;-80
2023/05/29 11:04:38;;;;;;;4.97;1.20;;;;;;;;;;5082103;27;88433;-80
2023/05/29 11:07:06;;;;;;;4.55;1.20;;;;;;;;;;5084949;27;88758;-80
2023/05/29 11:09:34;;;;;;;5.38;1.20;;;;;;;;;;5084239;27;88007;-79
2023/05/29 11:12:13;;;;;;;4.03;1.27;;;;;;;;;;5083674;27;88787;-80
2023/05/29 11:15:06;;;;;;;4.13;1.10;;;;;;;;;;5068655;27;89419;-80
2023/05/29 11:17:38;;;;;;;4.22;1.30;;;;;;;;;;5061731;27;88704;-80
2023/05/29 11:20:15;;;;;;;4.70;1.35;;;;;;;;;;5074960;27;87683;-80
2023/05/29 11:22:48;;;;;;;4.35;1.20;;;;;;;;;;5083563;27;87782;-80
2023/05/29 11:25:15;;;;;;;3.00;1.00;;;;;;;;;;5079504;27;88975;-80
2023/05/29 11:27:45;;;;;;;4.15;1.10;;;;;;;;;;5068026;27;88153;-80
2023/05/29 11:30:12;;;;;;;3.90;1.20;;;;;;;;;;5082602;27;88451;-80
2023/05/29 11:32:39;;;;;;;3.50;1.08;;;;;;;;;;5082374;27;87922;-79
2023/05/29 11:35:08;;;;;;;3.85;1.20;;;;;;;;;;5076557;27;87625;-79
2023/05/29 11:37:35;;;;;;;4.75;1.10;;;;;;;;;;5065191;27;89742;-80
2023/05/29 11:40:09;;;;;;;4.05;1.20;;;;;;;;;;5084689;27;89068;-80
2023/05/29 11:42:35;;;;;;;6.40;1.40;;;;;;;;;;5070961;27;89636;-80
2023/05/29 11:45:14;;;;;;;5.15;1.27;;;;;;;;;;5066065;27;92622;-80
2023/05/29 11:47:55;;;;;;;3.45;1.00;;;;;;;;;;5065850;27;87986;-80
2023/05/29 11:50:22;;;;;;;3.75;1.23;;;;;;;;;;5074891;27;89771;-80
2023/05/29 11:52:49;;;;;;;;;;;;;;;;;;5068264;27;90578;-80
2023/05/29 11:55:15;;;;;;;4.45;1.20;;;;;;;;;;5064972;27;110302;-80
2023/05/29 11:57:42;;;;;;;5.13;1.25;;;;;;;;;;5070021;27;88249;-80
2023/05/29 12:00:12;;;;;;;4.80;1.30;;;;;;;;;;5080824;27;88375;-80
2023/05/29 12:02:38;;;;;;;4.97;1.30;;;;;;;;;;5069074;27;87567;-80
2023/05/29 12:05:07;;;;;;;4.57;1.10;;;;;;;;;;5065552;27;89240;-80
2023/05/29 12:07:34;;;;;;;5.65;1.23;;;;;;;;;;5066432;27;87750;-80
2023/05/29 12:10:11;;;;;;;4.28;1.23;;;;;;;;;;5064860;27;90367;-79
2023/05/29 12:12:39;;;;;;;3.75;1.30;;;;;;;;;;5078647;27;88397;-80
2023/05/29 12:15:06;;;;;;;4.00;1.25;;;;;;;;;;5068216;27;89212;-80
2023/05/29 12:17:34;;;;;;;4.97;1.45;;;;;;;;;;5066549;27;88324;-80
2023/05/29 12:20:00;;;;;;;;;;;;;;;;;;5065336;27;88265;-80
2023/05/29 12:22:32;;;;;;;2.95;1.20;;;;;;;;;;5062400;27;89033;-80
2023/05/29 12:25:03;;;;;;;4.60;1.38;;;;;;;;;;5075148;27;87605;-80
2023/05/29 12:27:30;;;;;;;3.15;1.10;;;;;;;;;;5082779;27;87731;-80
2023/05/29 12:30:00;;;;;;;3.72;1.15;;;;;;;;;;5084923;27;90422;-80
2023/05/29 12:32:43;;;;;;;5.30;1.10;;;;;;;;;;5071377;27;90949;-80
2023/05/29 12:35:13;;;;;;;4.07;1.23;;;;;;;;;;5074922;27;90355;-79
2023/05/29 12:37:55;;;;;;;5.00;1.30;;;;;;;;;;5085328;27;88921;-80
2023/05/29 12:40:23;;;;;;;4.38;1.20;;;;;;;;;;5085300;27;88807;-80
2023/05/29 12:42:53;;;;;;;5.00;1.27;;;;;;;;;;5074015;27;87963;-80
2023/05/29 12:45:21;;;;;;;4.05;1.20;;;;;;;;;;5084887;27;90556;-81
2023/05/29 12:47:52;;;;;;;5.05;1.30;;;;;;;;;;5072712;27;87597;-81
2023/05/29 12:50:25;;;;;;;5.95;1.42;;;;;;;;;;5076645;27;87665;-80
2023/05/29 12:52:53;;;;;;;4.15;1.42;;;;;;;;;;5064287;27;88078;-80
2023/05/29 12:55:19;;;;;;;3.92;1.30;;;;;;;;;;5063463;27;88469;-80
2023/05/29 12:57:46;;;;;;;5.07;1.25;;;;;;;;;;5070265;27;88676;-80
2023/05/29 13:00:13;;;;;;;4.22;1.30;;;;;;;;;;5072042;27;88361;-79
2023/05/29 13:02:40;;;;;;;4.63;1.45;;;;;;;;;;5085492;27;87616;-79
2023/05/29 13:05:06;;;;;;;5.88;1.40;;;;;;;;;;5069865;27;87998;-80
2023/05/29 13:07:33;;;;;;;4.28;1.48;;;;;;;;;;5065702;27;88070;-79
2023/05/29 13:10:01;;;;;;;4.72;1.30;;;;;;;;;;5068408;27;87643;-80
2023/05/29 13:12:28;;;;;;;5.03;1.50;;;;;;;;;;5081559;27;87707;-79
2023/05/29 13:14:57;;;;;;;5.30;1.30;;;;;;;;;;5070471;27;88747;-80
2023/05/29 13:17:24;;;;;;;4.55;1.27;;;;;;;;;;5066506;27;89248;-79
2023/05/29 13:19:50;;;;;;;3.92;1.27;;;;;;;;;;5083148;27;89838;-80
2023/05/29 13:22:17;;;;;;;5.00;1.25;;;;;;;;;;5064271;27;87750;-80
2023/05/29 13:24:43;;;;;;;5.53;1.40;;;;;;;;;;5064788;27;88415;-79
2023/05/29 13:27:10;;;;;;;4.35;1.58;;;;;;;;;;5068513;27;89102;-80
2023/05/29 13:29:36;;;;;;;5.32;1.27;;;;;;;;;;5087156;27;87836;-79
2023/05/29 13:32:03;;;;;;;6.10;1.35;;;;;;;;;;5077763;27;90708;-80
2023/05/29 13:34:29;;;;;;;4.97;1.52;;;;;;;;;;5060957;27;88078;-79
2023/05/29 13:36:56;;;;;;;3.88;1.27;;;;;;;;;;5075663;27;88132;-80
2023/05/29 13:39:23;;;;;;;5.43;1.30;;;;;;;;;;5085804;27;88424;-80
2023/05/29 13:41:49;;;;;;;4.07;1.25;;;;;;;;;;5063183;27;89635;-79
2023/05/29 13:44:16;;;;;;;3.80;1.17;;;;;;;;;;5068984;27;88442;-79
2023/05/29 13:46:42;;;;;;;4.28;1.20;;;;;;;;;;5068038;27;88717;-80
2023/05/29 13:49:09;;;;;;;5.90;1.30;;;;;;;;;;5063386;27;89186;-80
2023/05/29 13:51:36;;;;;;;4.85;1.35;;;;;;;;;;5067766;27;87816;-80
2023/05/29 13:54:03;;;;;;;4.68;1.30;;;;;;;;;;5065351;27;87839;-79
2023/05/29 13:56:30;;;;;;;4.68;1.40;;;;;;;;;;5067121;27;87732;-80
2023/05/29 13:58:59;;;;;;;5.45;1.30;;;;;;;;;;5074248;27;88999;-80
2023/05/29 14:01:25;;;;;;;5.10;1.38;;;;;;;;;;5083892;27;87190;-79
2023/05/29 14:03:52;;;;;;;2.97;1.00;;;;;;;;;;5085183;27;87886;-80
2023/05/29 14:06:19;;;;;;;4.25;1.20;;;;;;;;;;5084869;27;88662;-80
2023/05/29 14:08:45;;;;;;;4.43;1.20;;;;;;;;;;5083477;27;88546;-81
2023/05/29 14:11:12;;;;;;;4.22;1.17;;;;;;;;;;5062452;27;91503;-79
2023/05/29 14:13:38;;;;;;;4.80;1.38;;;;;;;;;;5067346;27;88425;-80
2023/05/29 14:16:05;;;;;;;5.05;1.40;;;;;;;;;;5070905;27;90833;-79
2023/05/29 14:18:32;;;;;;;4.20;1.33;;;;;;;;;;5063277;27;87810;-79
2023/05/29 14:20:58;;;;;;;4.75;1.30;;;;;;;;;;5063572;27;87766;-79
2023/05/29 14:23:25;;;;;;;4.07;1.20;;;;;;;;;;5066122;27;88429;-80
2023/05/29 14:25:51;;;;;;;3.75;1.25;;;;;;;;;;5066568;27;89927;-80
2023/05/29 14:28:18;;;;;;;5.22;1.30;;;;;;;;;;5083057;27;87833;-80
2023/05/29 14:30:45;;;;;;;4.85;1.20;;;;;;;;;;5081062;27;90425;-79
2023/05/29 14:33:11;;;;;;;5.22;1.35;;;;;;;;;;5067681;27;89022;-80
2023/05/29 14:35:38;;;;;;;5.75;1.50;;;;;;;;;;5080661;27;88164;-80
2023/05/29 14:38:04;;;;;;;6.15;1.25;;;;;;;;;;5083889;27;88273;-80
2023/05/29 14:40:31;;;;;;;5.70;1.50;;;;;;;;;;5064293;27;88253;-80
2023/05/29 14:42:58;;;;;;;4.95;1.30;;;;;;;;;;5063192;27;88405;-80
2023/05/29 14:45:24;;;;;;;4.43;1.20;;;;;;;;;;5072198;27;88561;-81
2023/05/29 14:47:51;;;;;;;3.35;1.10;;;;;;;;;;5082850;27;90966;-80
2023/05/29 14:50:17;;;;;;;5.05;1.40;;;;;;;;;;5076958;27;88051;-81